createdAt,value
2022-11-28T00:00:08.623Z,13.10
2022-11-28T00:05:14.615Z,12.90
2022-11-28T00:10:16.496Z,11.00
2022-11-28T00:15:18.385Z,12.18
2022-11-28T00:20:20.299Z,14.73
2022-11-28T00:25:22.040Z,10.23
2022-11-28T00:30:23.767Z,11.02
2022-11-28T00:35:25.485Z,15.23
2022-11-28T00:40:28.490Z,11.77
2022-11-28T00:45:30.385Z,13.23
2022-11-28T00:50:32.191Z,7.72
2022-11-28T00:55:34.107Z,16.10
2022-11-28T01:00:36.225Z,10.35
2022-11-28T01:05:44.093Z,7.38
2022-11-28T01:15:48.214Z,11.25
2022-11-28T01:20:50.221Z,13.57
2022-11-28T01:25:52.186Z,15.75
2022-11-28T01:30:53.987Z,11.02
2022-11-28T01:35:58.050Z,15.85
2022-11-28T01:40:59.854Z,14.20
2022-11-28T01:46:02.223Z,16.20
2022-11-28T01:51:09.135Z,13.30
2022-11-28T01:56:24.941Z,12.10
2022-11-28T02:01:27.369Z,15.15
2022-11-28T02:06:30.969Z,10.82
2022-11-28T02:11:52.156Z,10.85
2022-11-28T02:17:42.824Z,13.80
2022-11-28T02:23:04.881Z,13.32
2022-11-28T02:28:31.221Z,11.07
2022-11-28T02:33:46.866Z,11.30
2022-11-28T02:38:55.180Z,10.45
2022-11-28T02:44:16.936Z,14.45
2022-11-28T02:49:43.973Z,15.48
2022-11-28T02:54:51.125Z,12.02
2022-11-28T02:59:53.097Z,14.17
2022-11-28T03:05:08.004Z,15.88
2022-11-28T03:10:25.335Z,17.60
2022-11-28T03:15:44.442Z,17.10
2022-11-28T03:20:53.253Z,14.25
2022-11-28T03:26:17.354Z,12.65
2022-11-28T03:31:34.475Z,16.05
2022-11-28T03:36:44.160Z,12.93
2022-11-28T03:42:00.604Z,20.23
2022-11-28T03:47:06.043Z,11.75
2022-11-28T03:52:16.028Z,20.17
2022-11-28T03:57:56.728Z,14.82
2022-11-28T04:03:11.921Z,17.85
2022-11-28T04:08:22.013Z,15.82
2022-11-28T04:13:35.466Z,16.02
2022-11-28T04:18:58.109Z,12.25
2022-11-28T04:24:08.033Z,14.48
2022-11-28T04:29:14.207Z,17.65
2022-11-28T04:34:19.043Z,15.57
2022-11-28T04:39:26.379Z,16.33
2022-11-28T04:44:33.588Z,19.83
2022-11-28T04:49:35.697Z,21.67
2022-11-28T04:54:46.876Z,16.73
2022-11-28T04:59:50.021Z,20.08
2022-11-28T05:04:55.919Z,16.40
2022-11-28T05:09:57.784Z,15.32
2022-11-28T05:14:59.671Z,19.52
2022-11-28T05:20:01.575Z,17.23
2022-11-28T05:25:03.519Z,23.85
2022-11-28T05:30:06.558Z,14.50
2022-11-28T05:35:09.481Z,15.20
2022-11-28T05:40:11.710Z,21.05
2022-11-28T05:45:13.750Z,17.17
2022-11-28T05:50:15.962Z,18.88
2022-11-28T05:55:18.093Z,17.77
2022-11-28T06:00:21.387Z,17.50
2022-11-28T06:05:41.545Z,18.83
2022-11-28T06:10:44.523Z,16.95
2022-11-28T06:15:46.276Z,16.98
2022-11-28T06:20:47.986Z,16.50
2022-11-28T06:25:50.876Z,13.35
2022-11-28T06:30:52.948Z,19.65
2022-11-28T06:36:01.839Z,16.95
2022-11-28T06:41:06.889Z,15.90
2022-11-28T06:46:16.316Z,16.90
2022-11-28T06:51:20.385Z,15.27
2022-11-28T06:56:22.770Z,19.48
2022-11-28T07:01:28.399Z,14.65
2022-11-28T07:06:30.359Z,17.27
2022-11-28T07:11:32.717Z,14.38
2022-11-28T07:16:34.766Z,19.77
2022-11-28T07:21:36.758Z,14.00
2022-11-28T07:26:38.622Z,17.48
2022-11-28T07:31:40.479Z,17.98
2022-11-28T07:36:42.577Z,16.80
2022-11-28T07:41:44.391Z,12.35
2022-11-28T07:46:47.051Z,18.45
2022-11-28T07:51:48.913Z,14.65
2022-11-28T07:57:12.819Z,12.68
2022-11-28T08:02:13.274Z,15.00
2022-11-28T08:07:15.377Z,16.38
2022-11-28T08:12:17.549Z,16.85
2022-11-28T08:17:19.553Z,17.15
2022-11-28T08:22:21.475Z,16.88
2022-11-28T08:27:23.321Z,17.42
2022-11-28T08:32:30.890Z,14.93
2022-11-28T08:37:32.784Z,14.30
2022-11-28T08:42:34.754Z,20.08
2022-11-28T08:47:36.654Z,17.98
2022-11-28T08:52:39.080Z,15.88
2022-11-28T08:57:41.025Z,12.80
2022-11-28T09:02:43.286Z,17.55
2022-11-28T09:07:45.162Z,14.20
2022-11-28T09:12:47.063Z,14.23
2022-11-28T09:17:48.973Z,12.95
2022-11-28T09:22:50.748Z,18.75
2022-11-28T09:27:52.550Z,11.55
2022-11-28T09:32:54.431Z,14.88
2022-11-28T09:37:57.796Z,15.05
2022-11-28T09:43:02.372Z,16.08
2022-11-28T09:48:34.171Z,11.43
2022-11-28T09:53:57.152Z,17.25
2022-11-28T09:59:03.217Z,14.35
2022-11-28T10:04:24.398Z,12.40
2022-11-28T10:09:35.491Z,21.08
2022-11-28T10:15:12.753Z,12.63
2022-11-28T10:20:21.166Z,16.15
2022-11-28T10:25:31.916Z,22.80
2022-11-28T10:30:38.403Z,20.23
2022-11-28T10:35:47.933Z,15.95
2022-11-28T10:41:03.426Z,20.20
2022-11-28T10:46:42.528Z,16.33
2022-11-28T10:51:44.317Z,18.38
2022-11-28T10:57:09.378Z,15.77
2022-11-28T11:02:40.412Z,18.67
2022-11-28T11:08:03.507Z,16.55
2022-11-28T11:13:21.756Z,17.88
2022-11-28T11:18:31.139Z,18.35
2022-11-28T11:23:38.102Z,17.27
2022-11-28T11:28:45.688Z,20.38
2022-11-28T11:33:51.272Z,17.75
2022-11-28T11:39:05.981Z,21.45
2022-11-28T11:44:13.743Z,19.02
2022-11-28T11:49:38.522Z,19.02
2022-11-28T11:55:10.788Z,16.50
2022-11-28T12:00:21.105Z,17.48
2022-11-28T12:06:16.829Z,18.00
2022-11-28T12:11:24.863Z,19.67
2022-11-28T12:16:49.487Z,21.42
2022-11-28T12:22:28.648Z,19.30
2022-11-28T12:27:51.378Z,20.10
2022-11-28T12:33:15.196Z,22.63
2022-11-28T12:38:31.608Z,13.85
2022-11-28T12:43:49.026Z,16.00
2022-11-28T12:49:14.264Z,20.37
2022-11-28T12:54:29.308Z,18.88
2022-11-28T13:00:09.966Z,19.63
2022-11-28T13:05:12.003Z,16.08
2022-11-28T13:10:31.630Z,18.55
2022-11-28T13:15:59.117Z,17.95
2022-11-28T13:21:22.892Z,18.80
2022-11-28T13:27:00.393Z,21.35
2022-11-28T13:32:15.601Z,16.65
2022-11-28T13:43:39.497Z,14.13
2022-11-28T13:54:19.413Z,15.90
2022-11-28T13:59:25.433Z,18.27
2022-11-28T14:04:30.080Z,19.88
2022-11-28T14:09:47.717Z,18.13
2022-11-28T14:15:15.163Z,18.98
2022-11-28T14:20:54.659Z,16.30
2022-11-28T14:25:57.273Z,26.88
2022-11-28T14:31:18.076Z,21.38
2022-11-28T14:36:35.491Z,15.75
2022-11-28T14:42:08.146Z,14.98
2022-11-28T14:47:32.370Z,15.52
2022-11-28T14:52:40.554Z,14.93
2022-11-28T14:57:44.424Z,26.95
2022-11-28T15:03:15.753Z,17.00
2022-11-28T15:08:49.191Z,17.60
2022-11-28T15:13:57.275Z,16.98
2022-11-28T15:19:06.631Z,19.35
2022-11-28T15:24:23.412Z,18.80
2022-11-28T15:29:29.191Z,20.85
2022-11-28T15:34:33.675Z,21.02
2022-11-28T15:39:40.464Z,22.30
2022-11-28T15:44:44.518Z,25.50
2022-11-28T15:50:05.993Z,21.85
2022-11-28T15:55:17.879Z,18.98
2022-11-28T16:00:24.719Z,17.85
2022-11-28T16:05:27.769Z,17.15
2022-11-28T16:10:35.211Z,27.73
2022-11-28T16:15:38.607Z,26.93
2022-11-28T16:20:41.053Z,23.20
2022-11-28T16:25:43.074Z,17.67
2022-11-28T16:30:48.561Z,27.77
2022-11-28T16:35:50.450Z,25.58
2022-11-28T16:41:01.030Z,21.17
2022-11-28T16:46:06.999Z,24.38
2022-11-28T16:51:33.937Z,24.55
2022-11-28T16:56:35.849Z,23.25
2022-11-28T17:01:39.472Z,24.60
2022-11-28T17:06:42.796Z,19.83
2022-11-28T17:12:08.013Z,23.92
2022-11-28T17:17:13.379Z,25.38
2022-11-28T17:22:18.906Z,19.75
2022-11-28T17:27:20.784Z,18.52
2022-11-28T17:32:22.732Z,24.40
2022-11-28T17:37:24.627Z,23.80
2022-11-28T17:42:26.338Z,30.35
2022-11-28T17:47:29.098Z,25.58
2022-11-28T17:52:32.869Z,29.85
2022-11-28T17:57:36.223Z,26.85
2022-11-28T18:02:38.270Z,27.05
2022-11-28T18:07:40.642Z,21.58
2022-11-28T18:12:46.681Z,26.77
2022-11-28T18:17:48.634Z,21.80
2022-11-28T18:22:50.647Z,25.25
2022-11-28T18:27:52.762Z,28.27
2022-11-28T18:32:54.680Z,23.95
2022-11-28T18:37:56.902Z,29.73
2022-11-28T18:42:59.045Z,36.78
2022-11-28T18:48:01.055Z,25.73
2022-11-28T18:53:04.934Z,25.10
2022-11-28T18:58:07.221Z,28.73
2022-11-28T19:03:09.317Z,26.60
2022-11-28T19:08:11.413Z,25.08
2022-11-28T19:13:13.919Z,28.50
2022-11-28T19:18:16.292Z,18.65
2022-11-28T19:23:18.415Z,25.45
2022-11-28T19:28:21.161Z,30.20
2022-11-28T19:33:22.960Z,21.83
2022-11-28T19:38:24.821Z,25.20
2022-11-28T19:43:27.218Z,24.17
2022-11-28T19:48:30.736Z,21.70
2022-11-28T19:53:34.773Z,27.65
2022-11-28T19:58:38.731Z,27.35
2022-11-28T20:03:43.142Z,27.67
2022-11-28T20:08:48.224Z,22.45
2022-11-28T20:13:55.439Z,23.13
2022-11-28T20:18:57.855Z,26.50
2022-11-28T20:24:04.698Z,20.27
2022-11-28T20:29:12.594Z,18.95
2022-11-28T20:34:15.998Z,26.27
2022-11-28T20:39:18.804Z,23.63
2022-11-28T20:44:20.887Z,20.77
2022-11-28T20:49:23.034Z,25.35
2022-11-28T20:54:26.083Z,19.35
2022-11-28T20:59:28.044Z,26.05
2022-11-28T21:04:30.102Z,21.27
2022-11-28T21:09:31.907Z,21.83
2022-11-28T21:14:33.608Z,23.08
2022-11-28T21:19:35.308Z,22.85
2022-11-28T21:24:37.006Z,23.42
2022-11-28T21:29:38.831Z,21.63
2022-11-28T21:34:40.820Z,21.35
2022-11-28T21:39:42.929Z,22.33
2022-11-28T21:44:45.100Z,21.65
2022-11-28T21:49:47.080Z,24.88
2022-11-28T21:54:50.867Z,17.20
2022-11-28T21:59:52.917Z,22.48
2022-11-28T22:04:55.233Z,17.92
2022-11-28T22:09:57.056Z,21.00
2022-11-28T22:14:58.807Z,17.13
2022-11-28T22:20:01.750Z,15.88
2022-11-28T22:25:04.598Z,15.93
2022-11-28T22:30:07.468Z,18.02
2022-11-28T22:35:09.897Z,21.73
2022-11-28T22:40:13.658Z,17.85
2022-11-28T22:45:16.011Z,16.35
2022-11-28T22:50:18.047Z,18.80
2022-11-28T22:55:20.095Z,22.60
2022-11-28T23:00:22.406Z,18.98
2022-11-28T23:05:24.493Z,21.20
2022-11-28T23:10:27.975Z,21.88
2022-11-28T23:15:29.824Z,21.58
2022-11-28T23:20:32.125Z,18.42
2022-11-28T23:25:35.798Z,22.35
2022-11-28T23:30:38.425Z,20.13
2022-11-28T23:35:40.611Z,16.92
2022-11-28T23:40:42.770Z,18.52
2022-11-28T23:45:44.613Z,18.08
2022-11-28T23:50:47.262Z,18.13
2022-11-28T23:55:48.964Z,19.45
